Time;durP1;ratioP1;P1;durP2;ratioP2;P2;SDS_P1;SDS_P2;PMS_P1;PMS_P2;Temp;Humidity;BMP_temperature;BMP_pressure;BME280_temperature;BME280_humidity;BME280_pressure;Samples;Min_cycle;Max_cycle;Signal;HPM_P1;HPM_P2
2022/04/11 00:00:32;;;;;;;3.70;1.77;;;6.60;99.90;;;;;;5114785;28;20979;-41
2022/04/11 00:02:59;;;;;;;7.17;2.23;;;7.10;99.90;;;;;;5115261;28;20918;-42
2022/04/11 00:05:26;;;;;;;5.03;3.60;;;6.60;99.90;;;;;;5096944;28;20436;-43
2022/04/11 00:07:53;;;;;;;4.83;2.13;;;7.00;99.90;;;;;;5115070;28;20437;-41
2022/04/11 00:10:20;;;;;;;4.27;2.23;;;6.70;99.90;;;;;;5114753;28;20450;-42
2022/04/11 00:12:48;;;;;;;5.00;2.93;;;6.90;99.90;;;;;;5115091;28;20438;-42
2022/04/11 00:15:14;;;;;;;8.33;2.97;;;7.00;99.90;;;;;;5115070;28;20437;-43
2022/04/11 00:17:41;;;;;;;5.27;2.20;;;6.80;99.90;;;;;;5114996;28;20419;-43
2022/04/11 00:20:08;;;;;;;7.73;2.50;;;7.00;99.90;;;;;;5096324;28;20452;-43
2022/04/11 00:22:35;;;;;;;5.30;1.93;;;6.60;99.90;;;;;;5114859;28;20790;-42
2022/04/11 00:25:02;;;;;;;4.17;1.80;;;7.00;99.90;;;;;;5114777;28;20441;-43
2022/04/11 00:27:29;;;;;;;3.83;2.30;;;6.60;99.90;;;;;;5114905;28;20403;-42
2022/04/11 00:29:57;;;;;;;5.93;2.57;;;6.70;99.90;;;;;;5114155;28;20793;-42
2022/04/11 00:32:23;;;;;;;11.07;2.40;;;6.90;99.90;;;;;;5096411;28;20445;-43
2022/04/11 00:34:50;;;;;;;6.83;2.37;;;6.40;99.90;;;;;;5114734;28;20437;-43
2022/04/11 00:37:17;;;;;;;13.80;2.57;;;6.90;99.90;;;;;;5114707;28;20430;-43
2022/04/11 00:39:44;;;;;;;8.73;2.67;;;6.90;99.90;;;;;;5116033;27;20473;-44
2022/04/11 00:42:13;;;;;;;5.13;1.93;;;6.90;99.90;;;;;;5135067;27;20437;-42
2022/04/11 00:44:40;;;;;;;5.83;2.03;;;6.60;99.90;;;;;;5116468;27;20484;-43
2022/04/11 00:47:08;;;;;;;6.50;2.10;;;6.70;99.90;;;;;;5134977;27;20913;-44
2022/04/11 00:49:35;;;;;;;7.23;2.43;;;6.60;99.90;;;;;;5134594;27;20438;-42
2022/04/11 00:52:02;;;;;;;8.67;2.20;;;6.70;99.90;;;;;;5116504;27;20471;-42
2022/04/11 00:54:30;;;;;;;8.07;2.00;;;6.50;99.90;;;;;;5103378;28;20452;-44
2022/04/11 00:56:58;;;;;;;3.90;1.90;;;6.40;99.90;;;;;;5114566;28;20412;-44
2022/04/11 00:59:25;;;;;;;4.43;1.70;;;6.80;99.90;;;;;;5116767;28;20596;-43
2022/04/11 01:01:52;;;;;;;8.53;2.73;;;6.50;99.90;;;;;;5116964;28;20422;-42
2022/04/11 01:04:27;;;;;;;7.63;2.57;;;6.40;99.90;;;;;;5116021;28;20534;-43
2022/04/11 01:06:55;;;;;;;11.47;2.17;;;6.10;99.90;;;;;;5114903;28;20477;-45
2022/04/11 01:09:23;;;;;;;6.87;2.10;;;6.30;99.90;;;;;;5114442;28;20531;-44
2022/04/11 01:11:50;;;;;;;9.70;2.50;;;6.40;99.90;;;;;;5114444;28;20447;-43
2022/04/11 01:14:17;;;;;;;5.10;2.90;;;6.10;99.90;;;;;;5114452;28;20443;-43
2022/04/11 01:16:48;;;;;;;7.27;2.63;;;6.20;99.90;;;;;;5095809;28;20440;-43
2022/04/11 01:19:14;;;;;;;8.60;2.80;;;6.00;99.90;;;;;;5112117;28;20476;-43
2022/04/11 01:21:42;;;;;;;5.67;2.60;;;5.90;99.90;;;;;;5113740;28;20452;-42
2022/04/11 01:24:09;;;;;;;7.47;2.37;;;6.00;99.90;;;;;;5095343;28;20459;-44
2022/04/11 01:26:37;;;;;;;5.73;2.10;;;5.50;99.90;;;;;;5095262;28;20433;-42
2022/04/11 01:29:04;;;;;;;8.63;2.50;;;6.20;99.90;;;;;;5094930;28;20641;-44
2022/04/11 01:31:32;;;;;;;6.83;2.53;;;5.40;99.90;;;;;;5095081;28;20967;-42
2022/04/11 01:33:59;;;;;;;6.25;2.58;;;6.40;99.90;;;;;;5095130;28;20547;-42
2022/04/11 01:36:26;;;;;;;9.18;2.20;;;6.20;99.90;;;;;;5094997;28;20201;-42
2022/04/11 01:38:54;;;;;;;15.97;3.73;;;5.90;99.90;;;;;;5094642;28;20237;-42
2022/04/11 01:41:20;;;;;;;4.82;3.35;;;5.40;99.90;;;;;;5128694;27;20982;-42
2022/04/11 01:43:48;;;;;;;6.82;2.80;;;5.80;99.90;;;;;;5115402;27;20224;-43
2022/04/11 01:46:15;;;;;;;6.65;2.80;;;5.80;99.90;;;;;;5115420;27;20198;-42
2022/04/11 01:48:47;;;;;;;3.93;2.07;;;5.30;99.90;;;;;;5114979;27;20224;-42
2022/04/11 01:51:15;;;;;;;10.18;2.80;;;5.80;99.90;;;;;;5115234;27;20471;-43
2022/04/11 01:53:41;;;;;;;8.43;2.87;;;5.60;99.90;;;;;;5126984;27;20231;-42
2022/04/11 01:56:09;;;;;;;4.23;2.23;;;5.60;99.90;;;;;;5094295;28;20459;-44
2022/04/11 01:58:36;;;;;;;7.90;2.20;;;5.60;99.90;;;;;;5094364;28;20453;-44
2022/04/11 02:01:03;;;;;;;5.67;2.63;;;5.90;99.90;;;;;;5094563;28;20486;-43
2022/04/11 02:03:34;;;;;;;5.95;2.53;;;5.60;99.90;;;;;;5094594;28;20732;-43
2022/04/11 02:06:00;;;;;;;4.13;2.13;;;6.00;99.90;;;;;;5094605;28;20291;-43
2022/04/11 02:08:27;;;;;;;7.30;2.45;;;5.60;99.90;;;;;;5094060;28;20456;-42
2022/04/11 02:10:59;;;;;;;3.17;2.28;;;5.60;99.90;;;;;;5094560;28;20213;-44
2022/04/11 02:13:28;;;;;;;11.07;3.10;;;5.80;99.90;;;;;;5112711;28;20198;-42
2022/04/11 02:15:55;;;;;;;4.25;2.20;;;5.70;99.90;;;;;;5094344;28;20870;-43
2022/04/11 02:18:21;;;;;;;6.33;2.73;;;5.70;99.90;;;;;;5112670;28;20198;-47
2022/04/11 02:20:48;;;;;;;8.95;2.00;;;5.70;99.90;;;;;;5094128;28;20467;-41
2022/04/11 02:23:15;;;;;;;7.63;2.40;;;5.00;99.90;;;;;;5112617;28;20194;-44
2022/04/11 02:25:42;;;;;;;7.50;2.60;;;5.80;99.90;;;;;;5112506;28;20572;-43
2022/04/11 02:28:28;;;;;;;6.50;2.55;;;5.60;99.90;;;;;;5094448;28;20955;-44
2022/04/11 02:30:56;;;;;;;4.90;3.07;;;5.50;99.90;;;;;;5111016;28;20259;-43
2022/04/11 02:33:23;;;;;;;5.90;2.70;;;5.40;99.90;;;;;;5094147;28;20425;-44
2022/04/11 02:35:50;;;;;;;8.20;2.73;;;5.80;99.90;;;;;;5094465;28;20204;-41
2022/04/11 02:38:17;;;;;;;5.13;2.72;;;5.70;99.90;;;;;;5094184;28;20454;-42
2022/04/11 02:40:46;;;;;;;8.30;3.00;;;5.80;99.90;;;;;;5103642;28;20229;-42
2022/04/11 02:43:19;;;;;;;6.68;2.97;;;5.40;99.90;;;;;;5114576;28;20196;-43
2022/04/11 02:45:57;;;;;;;5.15;2.45;;;5.00;99.90;;;;;;5114451;28;20669;-43
2022/04/11 02:48:29;;;;;;;4.70;2.50;;;5.40;99.90;;;;;;5114303;28;20248;-42
2022/04/11 02:51:04;;;;;;;6.73;2.67;;;5.50;99.90;;;;;;5114296;28;20466;-44
2022/04/11 02:53:39;;;;;;;3.55;2.30;;;5.30;99.90;;;;;;5108129;28;20504;-45
2022/04/11 02:56:06;;;;;;;5.97;2.30;;;5.70;99.90;;;;;;5093964;28;20210;-42
2022/04/11 02:58:33;;;;;;;5.00;2.63;;;5.50;99.90;;;;;;5093623;28;20288;-43
2022/04/11 03:01:01;;;;;;;5.50;2.60;;;5.50;99.90;;;;;;5093741;28;21000;-44
2022/04/11 03:03:29;;;;;;;7.25;3.05;;;5.30;99.90;;;;;;5093879;28;20444;-43
2022/04/11 03:05:57;;;;;;;12.33;2.63;;;5.60;99.90;;;;;;5093640;28;20194;-43
2022/04/11 03:08:24;;;;;;;7.70;2.83;;;5.40;99.90;;;;;;5096890;28;20430;-43
2022/04/11 03:10:51;;;;;;;7.40;2.67;;;5.00;99.90;;;;;;5097737;28;20213;-43
2022/04/11 03:13:18;;;;;;;8.35;2.80;;;5.60;99.90;;;;;;5097899;28;20193;-42
2022/04/11 03:15:44;;;;;;;6.83;2.97;;;5.20;99.90;;;;;;5097894;28;20203;-43
2022/04/11 03:18:13;;;;;;;4.95;2.42;;;5.20;99.90;;;;;;5097707;28;20930;-43
2022/04/11 03:20:40;;;;;;;8.43;2.30;;;5.20;99.90;;;;;;5097256;28;20253;-42
2022/04/11 03:23:07;;;;;;;5.83;2.63;;;4.60;99.90;;;;;;5114696;28;20687;-42
2022/04/11 03:25:37;;;;;;;5.25;3.05;;;5.20;99.90;;;;;;5097503;28;20447;-43
2022/04/11 03:28:05;;;;;;;6.53;2.95;;;5.50;99.90;;;;;;5097542;28;20337;-43
2022/04/11 03:30:34;;;;;;;6.95;2.40;;;5.30;99.90;;;;;;5114296;28;20316;-42
2022/04/11 03:33:00;;;;;;;9.43;2.92;;;5.10;99.90;;;;;;5097302;28;20198;-46
2022/04/11 03:35:31;;;;;;;10.00;2.83;;;5.00;99.90;;;;;;5097460;28;20251;-42
2022/04/11 03:37:58;;;;;;;10.70;3.13;;;4.90;99.90;;;;;;5115817;28;20198;-44
2022/04/11 03:40:27;;;;;;;7.43;3.45;;;5.10;99.90;;;;;;5104597;27;20312;-42
2022/04/11 03:42:56;;;;;;;8.25;2.90;;;5.20;99.90;;;;;;5136358;27;20190;-43
2022/04/11 03:45:24;;;;;;;7.85;3.10;;;5.20;99.90;;;;;;5117728;27;20201;-42
2022/04/11 03:47:51;;;;;;;9.65;3.97;;;5.20;99.90;;;;;;5117823;27;20200;-42
2022/04/11 03:50:22;;;;;;;3.63;2.50;;;5.20;99.90;;;;;;5117270;27;20697;-41
2022/04/11 03:52:50;;;;;;;6.28;2.80;;;4.90;99.90;;;;;;5117518;27;20236;-41
2022/04/11 03:55:17;;;;;;;8.15;3.05;;;5.00;99.90;;;;;;5097370;28;20297;-43
2022/04/11 03:57:47;;;;;;;7.55;3.67;;;5.30;99.90;;;;;;5115601;28;20228;-41
2022/04/11 04:00:15;;;;;;;4.40;2.67;;;5.00;99.90;;;;;;5096540;28;20302;-41
2022/04/11 04:03:06;;;;;;;5.97;2.88;;;5.10;99.90;;;;;;5114005;28;20292;-43
2022/04/11 04:05:33;;;;;;;9.30;3.38;;;4.90;99.90;;;;;;5113932;28;20232;-42
2022/04/11 04:08:02;;;;;;;5.82;2.58;;;5.10;99.90;;;;;;5113807;28;20286;-41
2022/04/11 04:10:28;;;;;;;10.35;3.35;;;5.10;99.90;;;;;;5096219;28;20762;-42
2022/04/11 04:12:58;;;;;;;4.05;2.65;;;5.10;99.90;;;;;;5096531;28;20217;-42
2022/04/11 04:15:24;;;;;;;6.93;2.85;;;4.50;99.90;;;;;;5096695;28;20197;-43
2022/04/11 04:17:54;;;;;;;7.60;3.80;;;5.10;99.90;;;;;;5096429;28;20318;-43
2022/04/11 04:20:21;;;;;;;8.73;2.80;;;4.80;99.90;;;;;;5096402;28;20237;-43
2022/04/11 04:22:48;;;;;;;7.72;2.97;;;4.80;99.90;;;;;;5096583;28;20229;-46
2022/04/11 04:25:16;;;;;;;5.82;3.17;;;4.90;99.90;;;;;;5096469;28;20206;-44
2022/04/11 04:27:43;;;;;;;7.60;3.40;;;5.10;99.90;;;;;;5096392;28;20254;-43
2022/04/11 04:30:12;;;;;;;13.73;3.78;;;5.00;99.90;;;;;;5096020;28;20225;-43
2022/04/11 04:32:40;;;;;;;8.15;3.45;;;4.80;99.90;;;;;;5113334;28;20293;-42
2022/04/11 04:35:08;;;;;;;6.63;2.80;;;5.20;99.90;;;;;;5096263;28;20202;-43
2022/04/11 04:37:36;;;;;;;3.75;2.88;;;5.00;99.90;;;;;;5096247;28;20217;-43
2022/04/11 04:40:04;;;;;;;9.07;3.38;;;5.10;99.90;;;;;;5100010;27;20316;-43
2022/04/11 04:42:32;;;;;;;6.95;3.75;;;5.10;99.90;;;;;;5116773;27;20202;-43
2022/04/11 04:45:07;;;;;;;8.70;4.07;;;4.80;99.90;;;;;;5116591;27;20193;-43
2022/04/11 04:47:44;;;;;;;6.78;3.05;;;5.00;99.90;;;;;;5116512;27;20765;-45
2022/04/11 04:50:11;;;;;;;9.18;3.90;;;4.90;99.90;;;;;;5134330;27;20216;-43
2022/04/11 04:52:39;;;;;;;11.45;3.20;;;4.50;99.90;;;;;;5116286;27;20678;-43
2022/04/11 04:55:07;;;;;;;11.13;3.67;;;4.40;99.90;;;;;;5097844;28;20209;-43
2022/04/11 04:57:35;;;;;;;7.97;3.53;;;4.90;99.90;;;;;;5096193;28;20633;-43
2022/04/11 05:00:07;;;;;;;8.70;3.88;;;5.00;99.90;;;;;;5095413;28;20594;-43
2022/04/11 05:02:40;;;;;;;9.57;3.90;;;4.90;99.90;;;;;;5112855;28;20205;-42
2022/04/11 05:05:14;;;;;;;6.65;3.13;;;4.90;99.90;;;;;;5095706;28;20812;-42
2022/04/11 05:07:41;;;;;;;6.05;3.65;;;5.20;99.90;;;;;;5095632;28;20194;-44
2022/04/11 05:10:09;;;;;;;6.72;3.40;;;5.00;99.90;;;;;;5095562;28;20210;-43
2022/04/11 05:12:42;;;;;;;8.55;4.03;;;5.00;99.90;;;;;;5095546;28;20221;-42
2022/04/11 05:15:10;;;;;;;9.13;3.60;;;4.90;99.90;;;;;;5095531;28;20198;-45
2022/04/11 05:17:37;;;;;;;7.53;3.95;;;5.40;99.90;;;;;;5096133;28;20592;-41
2022/04/11 05:20:05;;;;;;;10.55;4.32;;;5.20;99.90;;;;;;5095287;28;20254;-43
2022/04/11 05:22:33;;;;;;;9.23;4.63;;;5.20;99.90;;;;;;5095412;28;20621;-43
2022/04/11 05:25:00;;;;;;;9.25;4.45;;;5.10;99.90;;;;;;5095295;28;20259;-42
2022/04/11 05:27:27;;;;;;;16.48;5.43;;;5.20;99.90;;;;;;5095476;28;20696;-45
2022/04/11 05:29:55;;;;;;;8.23;4.40;;;5.30;99.90;;;;;;5112222;28;20201;-43
2022/04/11 05:32:23;;;;;;;9.73;4.53;;;5.30;99.90;;;;;;5096250;28;20209;-45
2022/04/11 05:34:50;;;;;;;7.88;5.10;;;5.60;99.90;;;;;;5096036;28;20582;-45
2022/04/11 05:37:17;;;;;;;5.78;2.92;;;5.50;99.90;;;;;;5095392;28;20206;-46
2022/04/11 05:39:43;;;;;;;8.53;4.17;;;5.10;99.90;;;;;;5096685;27;20200;-45
2022/04/11 05:42:10;;;;;;;9.07;3.90;;;5.90;99.90;;;;;;5115442;27;20457;-45
2022/04/11 05:44:39;;;;;;;13.23;3.85;;;5.80;99.90;;;;;;5115647;27;20201;-45
2022/04/11 05:47:08;;;;;;;9.93;2.90;;;6.00;99.90;;;;;;5115916;27;20212;-46
2022/04/11 05:49:44;;;;;;;7.60;3.58;;;6.30;99.90;;;;;;5115239;27;20434;-47
2022/04/11 05:52:14;;;;;;;13.40;3.73;;;6.40;99.90;;;;;;5115605;27;20198;-44
2022/04/11 05:54:41;;;;;;;8.80;4.30;;;6.50;99.90;;;;;;5100329;28;20452;-45
2022/04/11 05:57:09;;;;;;;9.20;3.70;;;6.70;99.90;;;;;;5095058;28;20599;-45
2022/04/11 05:59:36;;;;;;;7.53;3.60;;;6.20;99.90;;;;;;5094726;28;20524;-45
2022/04/11 06:02:02;;;;;;;6.57;3.63;;;6.90;99.90;;;;;;5094581;28;20962;-45
2022/04/11 06:04:30;;;;;;;8.67;3.60;;;6.80;99.90;;;;;;5111980;28;20437;-45
2022/04/11 06:06:57;;;;;;;7.83;4.00;;;7.10;99.90;;;;;;5094709;28;20452;-45
2022/04/11 06:09:24;;;;;;;11.20;3.20;;;7.20;99.90;;;;;;5094612;28;20447;-45
2022/04/11 06:11:51;;;;;;;13.23;4.60;;;7.10;99.90;;;;;;5094782;28;20470;-45
2022/04/11 06:14:17;;;;;;;7.73;3.80;;;7.20;99.90;;;;;;5094937;28;20535;-45
2022/04/11 06:16:44;;;;;;;6.00;3.20;;;7.40;99.90;;;;;;5094762;28;20453;-46
2022/04/11 06:19:11;;;;;;;6.97;3.63;;;7.30;99.90;;;;;;5094295;28;20497;-44
2022/04/11 06:21:39;;;;;;;8.23;3.80;;;7.20;99.90;;;;;;5094570;28;20446;-45
2022/04/11 06:24:07;;;;;;;13.23;4.30;;;7.40;99.90;;;;;;5094881;28;20480;-44
2022/04/11 06:26:34;;;;;;;9.80;3.97;;;7.60;99.90;;;;;;5111894;28;20965;-47
2022/04/11 06:29:00;;;;;;;5.83;3.53;;;7.50;99.90;;;;;;5094683;28;20419;-45
2022/04/11 06:31:28;;;;;;;14.00;3.70;;;7.70;99.90;;;;;;5094485;28;20485;-45
2022/04/11 06:34:00;;;;;;;4.97;2.87;;;7.70;99.90;;;;;;5094348;28;20856;-46
2022/04/11 06:36:31;;;;;;;5.00;3.00;;;7.70;99.90;;;;;;5095023;28;21021;-45
2022/04/11 06:38:59;;;;;;;5.63;2.97;;;7.90;99.90;;;;;;5094329;28;20446;-45
2022/04/11 06:41:26;;;;;;;8.33;3.50;;;7.50;99.90;;;;;;5114717;27;20588;-44
2022/04/11 06:43:52;;;;;;;7.60;3.37;;;7.30;99.90;;;;;;5114369;27;20815;-45
2022/04/11 06:46:30;;;;;;;6.07;3.00;;;7.60;99.90;;;;;;5114405;28;20458;-45
2022/04/11 06:48:56;;;;;;;8.20;3.10;;;8.00;99.90;;;;;;5114320;28;21039;-46
2022/04/11 06:51:23;;;;;;;9.40;2.77;;;7.80;99.30;;;;;;5114645;28;20471;-46
2022/04/11 06:53:50;;;;;;;6.70;3.43;;;8.20;99.60;;;;;;5125600;28;20438;-46
2022/04/11 06:56:18;;;;;;;7.03;2.37;;;8.00;99.40;;;;;;5112491;28;20773;-46
2022/04/11 06:58:44;;;;;;;6.63;2.50;;;8.10;99.00;;;;;;5112292;28;20425;-45
2022/04/11 07:01:11;;;;;;;10.20;3.77;;;8.00;98.20;;;;;;5112821;28;20843;-44
2022/04/11 07:03:37;;;;;;;6.27;2.87;;;8.10;98.40;;;;;;5094391;28;20451;-46
2022/04/11 07:06:04;;;;;;;5.60;2.60;;;8.00;98.30;;;;;;5112775;28;20441;-45
2022/04/11 07:08:31;;;;;;;6.87;3.53;;;8.20;98.20;;;;;;5113161;28;20441;-46
2022/04/11 07:10:58;;;;;;;7.93;2.50;;;8.10;97.40;;;;;;5112411;28;20452;-46
2022/04/11 07:13:27;;;;;;;4.70;3.07;;;8.20;97.30;;;;;;5112492;28;20763;-46
2022/04/11 07:15:54;;;;;;;6.63;3.13;;;8.10;97.20;;;;;;5112557;28;20449;-46
2022/04/11 07:18:20;;;;;;;4.70;2.20;;;8.40;97.40;;;;;;5112501;28;20427;-46
2022/04/11 07:20:47;;;;;;;4.40;2.40;;;8.20;97.00;;;;;;5094457;28;21029;-46
2022/04/11 07:23:14;;;;;;;4.13;2.33;;;8.30;96.60;;;;;;5112359;28;20902;-46
2022/04/11 07:25:40;;;;;;;4.90;2.63;;;7.90;95.90;;;;;;5112062;28;20432;-46
2022/04/11 07:28:07;;;;;;;4.50;2.73;;;8.40;96.10;;;;;;5111881;28;20437;-45
2022/04/11 07:30:35;;;;;;;11.43;2.67;;;8.30;96.10;;;;;;5111939;28;20492;-45
2022/04/11 07:33:02;;;;;;;3.50;2.40;;;8.70;95.90;;;;;;5112532;28;20770;-45
2022/04/11 07:35:29;;;;;;;10.87;2.30;;;8.50;95.80;;;;;;5112577;28;20438;-45
2022/04/11 07:37:57;;;;;;;3.90;2.60;;;8.40;95.40;;;;;;5112528;28;20433;-46
2022/04/11 07:40:24;;;;;;;4.83;2.23;;;8.30;94.80;;;;;;5119371;27;20504;-45
2022/04/11 07:42:51;;;;;;;8.77;2.73;;;8.50;94.70;;;;;;5132526;28;20480;-47
2022/04/11 07:45:18;;;;;;;9.43;2.90;;;8.50;94.80;;;;;;5132246;28;20438;-46
2022/04/11 07:47:46;;;;;;;6.97;2.10;;;9.10;95.10;;;;;;5132677;28;20400;-44
2022/04/11 07:50:13;;;;;;;9.47;3.60;;;8.60;94.90;;;;;;5132323;28;20448;-45
2022/04/11 07:52:41;;;;;;;8.43;2.80;;;8.40;94.30;;;;;;5114999;27;20449;-45
2022/04/11 07:55:09;;;;;;;5.57;1.93;;;8.30;94.30;;;;;;5117949;27;20804;-46
2022/04/11 07:57:36;;;;;;;5.00;2.53;;;8.30;94.10;;;;;;5097726;28;20985;-44
2022/04/11 08:00:03;;;;;;;4.97;2.37;;;8.70;94.20;;;;;;5115856;28;20453;-45
2022/04/11 08:02:39;;;;;;;7.93;2.47;;;8.40;94.10;;;;;;5116349;28;20482;-44
2022/04/11 08:05:08;;;;;;;6.30;2.27;;;8.60;94.30;;;;;;5116129;28;20517;-45
2022/04/11 08:07:35;;;;;;;2.70;2.40;;;8.80;94.20;;;;;;5116174;28;20423;-44
2022/04/11 08:10:02;;;;;;;5.53;2.20;;;8.80;94.20;;;;;;5131429;27;20456;-45
2022/04/11 08:12:29;;;;;;;3.73;2.30;;;8.10;92.40;;;;;;5136236;27;20453;-45
2022/04/11 08:14:55;;;;;;;5.57;2.00;;;8.70;92.30;;;;;;5135845;27;20947;-45
2022/04/11 08:17:22;;;;;;;2.60;1.70;;;8.30;91.50;;;;;;5136325;27;20438;-45
2022/04/11 08:19:49;;;;;;;7.27;2.00;;;8.70;92.20;;;;;;5135838;27;20440;-44
2022/04/11 08:22:17;;;;;;;6.60;1.57;;;8.80;92.30;;;;;;5136104;27;20471;-45
2022/04/11 08:24:44;;;;;;;3.73;1.60;;;8.70;91.90;;;;;;5135982;27;20420;-45
2022/04/11 08:27:10;;;;;;;2.57;1.50;;;8.80;90.20;;;;;;5128133;27;20440;-44
2022/04/11 08:29:37;;;;;;;3.93;1.33;;;8.90;90.00;;;;;;5115056;28;20501;-45
2022/04/11 08:32:05;;;;;;;5.87;2.10;;;9.40;89.80;;;;;;5121458;27;20495;-45
2022/04/11 08:34:32;;;;;;;2.90;1.30;;;8.70;89.00;;;;;;5118836;27;20446;-45
2022/04/11 08:36:58;;;;;;;4.17;1.87;;;8.90;89.30;;;;;;5133889;27;20450;-47
2022/04/11 08:39:26;;;;;;;3.90;1.70;;;8.80;89.40;;;;;;5131908;27;20446;-46
2022/04/11 08:41:59;;;;;;;2.33;1.50;;;9.40;89.00;;;;;;5134657;27;20517;-45
2022/04/11 08:44:27;;;;;;;5.17;2.30;;;9.10;89.30;;;;;;5135732;27;20433;-46
2022/04/11 08:46:56;;;;;;;6.50;2.20;;;8.80;87.70;;;;;;5135995;27;20402;-45
2022/04/11 08:49:23;;;;;;;4.90;2.37;;;9.20;86.90;;;;;;5118935;27;20418;-45
2022/04/11 08:51:50;;;;;;;3.90;1.60;;;9.10;87.20;;;;;;5115106;28;20451;-45
2022/04/11 08:54:17;;;;;;;2.77;1.60;;;9.10;87.10;;;;;;5115355;28;20439;-44
2022/04/11 08:56:45;;;;;;;5.27;2.47;;;9.50;87.00;;;;;;5096490;28;20456;-45
2022/04/11 08:59:11;;;;;;;3.30;1.80;;;9.50;86.80;;;;;;5114243;28;20432;-45
2022/04/11 09:01:38;;;;;;;5.30;1.97;;;9.50;87.20;;;;;;5114751;28;20454;-45
2022/04/11 09:04:05;;;;;;;2.80;1.90;;;9.30;86.00;;;;;;5113801;28;20571;-45
2022/04/11 09:06:33;;;;;;;6.90;2.57;;;9.60;86.30;;;;;;5130979;27;20435;-45
2022/04/11 09:08:59;;;;;;;4.70;1.83;;;9.70;86.30;;;;;;5135102;27;20743;-46
2022/04/11 09:11:30;;;;;;;3.20;1.60;;;10.10;83.90;;;;;;5134884;27;20454;-46
2022/04/11 09:14:00;;;;;;;2.77;1.73;;;10.10;82.90;;;;;;5134847;27;20547;-46
2022/04/11 09:16:27;;;;;;;6.83;2.27;;;9.50;81.70;;;;;;5134813;27;20435;-45
2022/04/11 09:18:55;;;;;;;3.87;2.00;;;10.00;82.30;;;;;;5134464;27;20431;-45
2022/04/11 09:21:23;;;;;;;2.60;1.70;;;10.20;82.30;;;;;;5134449;27;20474;-45
2022/04/11 09:23:52;;;;;;;4.13;1.50;;;9.90;83.50;;;;;;5134285;27;20427;-45
2022/04/11 09:26:20;;;;;;;3.80;1.73;;;10.10;81.00;;;;;;5134357;27;20447;-44
2022/04/11 09:29:01;;;;;;;2.00;1.33;;;9.70;80.50;;;;;;5134440;27;20782;-46
2022/04/11 09:31:28;;;;;;;3.97;1.57;;;10.30;79.80;;;;;;5133779;27;20974;-46
2022/04/11 09:33:55;;;;;;;7.97;2.03;;;10.30;81.10;;;;;;5134425;27;20438;-46
2022/04/11 09:36:21;;;;;;;4.53;1.80;;;10.50;80.30;;;;;;5134158;27;20659;-45
2022/04/11 09:38:58;;;;;;;4.03;1.90;;;10.00;78.80;;;;;;5133163;27;20497;-45
2022/04/11 09:41:28;;;;;;;4.97;1.63;;;9.80;79.10;;;;;;5113643;28;20495;-44
2022/04/11 09:43:54;;;;;;;4.90;1.50;;;10.40;75.00;;;;;;5113550;28;20447;-45
2022/04/11 09:46:22;;;;;;;3.03;1.40;;;10.50;75.70;;;;;;5113889;28;20535;-45
2022/04/11 09:48:53;;;;;;;3.63;1.70;;;10.70;74.00;;;;;;5113314;28;20435;-45
2022/04/11 09:51:20;;;;;;;2.90;1.50;;;10.10;72.80;;;;;;5113856;28;20589;-46
2022/04/11 09:53:46;;;;;;;4.30;2.10;;;10.70;72.90;;;;;;5120716;27;20951;-46
2022/04/11 09:56:13;;;;;;;5.07;1.83;;;10.50;71.40;;;;;;5133549;27;20431;-45
2022/04/11 09:58:41;;;;;;;2.20;1.50;;;10.40;70.80;;;;;;5133725;27;20538;-45
2022/04/11 10:01:08;;;;;;;4.43;1.90;;;10.30;68.90;;;;;;5133478;27;20451;-46
2022/04/11 10:03:37;;;;;;;6.77;2.30;;;10.20;68.50;;;;;;5133404;27;20467;-44
2022/04/11 10:06:05;;;;;;;2.90;1.50;;;10.80;68.50;;;;;;5133868;27;20435;-45
2022/04/11 10:08:32;;;;;;;3.53;2.00;;;10.60;69.80;;;;;;5133940;27;20449;-45
2022/04/11 10:10:59;;;;;;;4.43;2.03;;;10.90;69.80;;;;;;5133300;27;20451;-46
2022/04/11 10:13:26;;;;;;;3.17;2.10;;;10.70;69.60;;;;;;5133761;27;20431;-46
2022/04/11 10:15:52;;;;;;;3.50;1.50;;;10.90;68.50;;;;;;5133187;27;20475;-45
2022/04/11 10:18:22;;;;;;;2.67;1.83;;;11.10;67.60;;;;;;5133305;27;20899;-45
2022/04/11 10:20:52;;;;;;;2.83;1.67;;;11.30;67.80;;;;;;5134568;27;20442;-44
2022/04/11 10:23:29;;;;;;;3.17;1.60;;;11.70;66.80;;;;;;5133919;27;20472;-46
2022/04/11 10:25:59;;;;;;;4.20;1.70;;;11.10;66.80;;;;;;5133357;27;20546;-46
2022/04/11 10:28:27;;;;;;;3.77;1.87;;;11.70;64.90;;;;;;5133287;27;20440;-45
2022/04/11 10:31:06;;;;;;;4.60;1.80;;;11.80;63.70;;;;;;5132977;27;20799;-46
2022/04/11 10:33:47;;;;;;;4.83;2.10;;;11.40;62.50;;;;;;5132982;27;20424;-48
2022/04/11 10:36:30;;;;;;;2.90;1.93;;;11.60;63.50;;;;;;5133455;27;20843;-45
2022/04/11 10:39:24;;;;;;;3.63;1.67;;;11.50;63.40;;;;;;5130550;27;20419;-46
2022/04/11 10:42:09;;;;;;;2.70;2.10;;;12.00;61.50;;;;;;5112493;28;20466;-47
2022/04/11 10:44:37;;;;;;;3.27;1.50;;;11.70;61.00;;;;;;5112188;28;20428;-45
2022/04/11 10:47:26;;;;;;;3.13;1.60;;;11.70;61.50;;;;;;5111927;28;20440;-46
2022/04/11 10:50:22;;;;;;;4.70;2.17;;;12.10;61.20;;;;;;5099410;28;20466;-46
2022/04/11 10:52:56;;;;;;;7.30;2.40;;;11.90;60.60;;;;;;5112385;28;21155;-46
2022/04/11 10:55:25;;;;;;;5.23;3.57;;;11.70;61.70;;;;;;5112237;28;20436;-45
2022/04/11 10:57:54;;;;;;;2.90;1.93;;;12.30;62.10;;;;;;5112193;28;20508;-46
2022/04/11 11:00:22;;;;;;;3.60;2.70;;;12.10;59.60;;;;;;5093626;28;20518;-48
2022/04/11 11:03:09;;;;;;;6.83;2.90;;;12.10;58.90;;;;;;5112067;28;20474;-45
2022/04/11 11:05:39;;;;;;;4.47;1.87;;;12.00;58.70;;;;;;5112921;28;20447;-44
2022/04/11 11:08:27;;;;;;;5.50;2.20;;;12.00;59.50;;;;;;5112627;28;20794;-45
2022/04/11 11:10:56;;;;;;;3.50;1.90;;;12.40;58.80;;;;;;5112090;28;20467;-45
2022/04/11 11:13:31;;;;;;;3.70;1.93;;;12.40;59.50;;;;;;5111953;28;20884;-45
2022/04/11 11:15:59;;;;;;;6.17;1.97;;;12.50;58.40;;;;;;5112121;28;20435;-46
2022/04/11 11:18:26;;;;;;;3.30;1.70;;;12.20;58.20;;;;;;5111959;28;20439;-46
2022/04/11 11:20:55;;;;;;;3.77;2.10;;;12.30;58.60;;;;;;5112010;28;20827;-45
2022/04/11 11:23:25;;;;;;;2.57;1.53;;;12.50;58.80;;;;;;5111969;28;20972;-45
2022/04/11 11:25:54;;;;;;;3.17;1.70;;;12.50;58.20;;;;;;5111857;28;20443;-45
2022/04/11 11:28:22;;;;;;;4.20;2.43;;;12.50;57.80;;;;;;5095430;28;20472;-45
2022/04/11 11:30:48;;;;;;;4.33;1.90;;;11.90;57.60;;;;;;5140533;22;20499;-51
2022/04/11 11:33:16;;;;;;;3.70;1.40;;;12.90;57.80;;;;;;5135797;27;20423;-52
2022/04/11 11:35:48;;;;;;;5.97;2.17;;;12.90;56.90;;;;;;5135342;27;20479;-51
2022/04/11 11:38:15;;;;;;;4.37;2.60;;;13.10;57.40;;;;;;5134742;27;20523;-52
2022/04/11 11:40:53;;;;;;;6.00;1.90;;;13.20;57.50;;;;;;5117864;27;20464;-53
2022/04/11 11:43:21;;;;;;;4.60;2.13;;;13.60;57.30;;;;;;5114857;28;20973;-52
2022/04/11 11:45:48;;;;;;;6.83;3.30;;;13.20;57.40;;;;;;5114824;28;20931;-52
2022/04/11 11:48:26;;;;;;;3.90;1.53;;;13.70;57.60;;;;;;5114999;28;20442;-52
2022/04/11 11:50:56;;;;;;;3.53;2.07;;;13.70;57.60;;;;;;5114328;28;20984;-53
2022/04/11 11:53:24;;;;;;;3.60;2.00;;;13.60;56.90;;;;;;5118469;27;20441;-52
2022/04/11 11:55:58;;;;;;;5.47;1.73;;;13.60;56.60;;;;;;5116782;27;20817;-53
2022/04/11 11:58:35;;;;;;;3.93;1.70;;;13.70;56.50;;;;;;5116423;27;20442;-52
2022/04/11 12:01:02;;;;;;;5.43;2.37;;;13.90;57.00;;;;;;5135226;27;20476;-51
2022/04/11 12:06:13;;;;;;;3.00;1.73;;;13.70;56.50;;;;;;5134557;27;20789;-52
2022/04/11 12:08:40;;;;;;;3.87;1.90;;;13.70;56.40;;;;;;5134513;27;20781;-52
2022/04/11 12:11:08;;;;;;;3.90;2.50;;;13.60;56.60;;;;;;5135156;27;20565;-53
2022/04/11 12:13:35;;;;;;;6.43;2.60;;;14.10;57.00;;;;;;5134897;27;20484;-53
2022/04/11 12:16:10;;;;;;;3.53;1.90;;;14.10;56.90;;;;;;5134621;27;20442;-52
2022/04/11 12:18:50;;;;;;;6.17;2.47;;;13.90;56.20;;;;;;5134501;27;20449;-53
2022/04/11 12:21:17;;;;;;;5.10;2.23;;;14.50;56.50;;;;;;5134357;27;20552;-54
2022/04/11 12:23:46;;;;;;;4.80;2.33;;;14.10;56.00;;;;;;5134662;27;20485;-52
2022/04/11 12:26:25;;;;;;;3.77;1.93;;;14.10;55.40;;;;;;5134452;27;20504;-53
2022/04/11 12:28:51;;;;;;;3.40;1.60;;;14.20;54.40;;;;;;5134667;27;20423;-53
2022/04/11 12:31:18;;;;;;;3.30;2.03;;;13.90;54.00;;;;;;5134139;27;20473;-53
2022/04/11 12:33:48;;;;;;;3.30;1.80;;;14.10;54.30;;;;;;5134103;27;20541;-51
2022/04/11 12:36:17;;;;;;;8.43;2.00;;;13.90;54.60;;;;;;5134204;27;20515;-54
2022/04/11 12:38:46;;;;;;;2.80;1.83;;;14.10;54.80;;;;;;5133180;27;20937;-52
2022/04/11 12:41:32;;;;;;;3.80;1.90;;;13.90;54.60;;;;;;5113528;28;20986;-52
2022/04/11 12:44:08;;;;;;;4.30;1.70;;;14.10;53.60;;;;;;5114068;28;20572;-53
2022/04/11 12:46:36;;;;;;;2.00;1.37;;;14.20;53.50;;;;;;5113573;28;20432;-51
2022/04/11 12:49:03;;;;;;;3.93;2.07;;;14.20;53.30;;;;;;5094811;28;20450;-52
2022/04/11 12:51:29;;;;;;;4.63;2.50;;;14.50;54.00;;;;;;5113322;28;20770;-53
2022/04/11 12:54:05;;;;;;;6.93;2.07;;;14.20;54.10;;;;;;5121737;27;20454;-53
2022/04/11 12:56:45;;;;;;;5.53;2.33;;;14.00;54.10;;;;;;5134223;27;20859;-52
2022/04/11 12:59:25;;;;;;;5.00;2.20;;;14.00;54.20;;;;;;5134228;27;20440;-54
2022/04/11 13:01:58;;;;;;;3.03;1.90;;;13.70;54.20;;;;;;5115772;27;20469;-53
2022/04/11 13:04:25;;;;;;;7.63;2.30;;;14.10;54.50;;;;;;5134060;27;20493;-52